createdAt,value
2017-09-19T00:01:12.603Z,98016.72
2017-09-19T00:03:40.954Z,98018.78
2017-09-19T00:06:09.275Z,98017.92
2017-09-19T00:08:37.604Z,98022.16
2017-09-19T00:11:05.946Z,98024.64
2017-09-19T00:13:35.038Z,98027.20
2017-09-19T00:16:03.389Z,98018.63
2017-09-19T00:18:31.717Z,98020.71
2017-09-19T00:21:00.839Z,98020.37
2017-09-19T00:23:29.158Z,98019.44
2017-09-19T00:25:57.482Z,98020.36
2017-09-19T00:28:25.827Z,98021.19
2017-09-19T00:30:54.150Z,98017.25
2017-09-19T00:33:22.473Z,98020.24
2017-09-19T00:35:50.825Z,98018.13
2017-09-19T00:38:19.151Z,98014.41
2017-09-19T00:40:47.584Z,98013.48
2017-09-19T00:43:15.928Z,98018.59
2017-09-19T00:45:45.011Z,98016.39
2017-09-19T00:48:13.335Z,98016.36
2017-09-19T00:50:41.686Z,98015.50
2017-09-19T00:53:10.774Z,98018.51
2017-09-19T00:55:39.888Z,98012.13
2017-09-19T00:58:08.979Z,98016.38
2017-09-19T01:00:38.066Z,98008.25
2017-09-19T01:03:07.177Z,98016.44
2017-09-19T01:05:36.262Z,98013.78
2017-09-19T01:08:05.378Z,98017.22
2017-09-19T01:10:34.466Z,98020.16
2017-09-19T01:13:03.550Z,98017.05
2017-09-19T01:15:31.910Z,98015.31
2017-09-19T01:18:00.234Z,98014.09
2017-09-19T01:20:29.318Z,98010.89
2017-09-19T01:22:58.434Z,98009.95
2017-09-19T01:25:26.762Z,98012.39
2017-09-19T01:27:55.078Z,98006.09
2017-09-19T01:30:24.198Z,98010.86
2017-09-19T01:32:52.523Z,98006.52
2017-09-19T01:35:20.842Z,98012.92
2017-09-19T01:37:49.951Z,98009.58
2017-09-19T01:40:18.282Z,98013.80
2017-09-19T01:42:46.601Z,98008.22
2017-09-19T01:45:15.722Z,98012.00
2017-09-19T01:47:44.050Z,98005.29
2017-09-19T01:50:12.375Z,98009.94
2017-09-19T01:52:40.725Z,98004.77
2017-09-19T01:55:09.825Z,98005.95
2017-09-19T01:57:38.915Z,97999.89
2017-09-19T02:00:08.038Z,98002.38
2017-09-19T02:02:36.361Z,97997.27
2017-09-19T02:05:04.683Z,98003.61
2017-09-19T02:07:33.797Z,97997.17
2017-09-19T02:10:02.115Z,97998.28
2017-09-19T02:12:30.447Z,97995.73
2017-09-19T02:14:59.562Z,97998.17
2017-09-19T02:17:27.882Z,97992.15
2017-09-19T02:19:56.206Z,97990.47
2017-09-19T02:22:25.320Z,97991.81
2017-09-19T02:24:53.642Z,98000.73
2017-09-19T02:27:21.962Z,97997.52
2017-09-19T02:29:51.090Z,97995.67
2017-09-19T02:32:19.471Z,97999.31
2017-09-19T02:34:47.800Z,97995.94
2017-09-19T02:37:16.146Z,97997.13
2017-09-19T02:39:44.473Z,97998.00
2017-09-19T02:42:13.590Z,98000.53
2017-09-19T02:44:41.915Z,97985.59
2017-09-19T02:47:10.234Z,97988.82
2017-09-19T02:49:39.353Z,97988.83
2017-09-19T02:52:07.674Z,97984.55
2017-09-19T02:54:36.005Z,97986.63
2017-09-19T02:57:04.351Z,97985.50
2017-09-19T02:59:32.670Z,97986.70
2017-09-19T03:02:01.017Z,97981.86
2017-09-19T03:04:30.164Z,97987.28
2017-09-19T03:06:58.511Z,97986.85
2017-09-19T03:09:27.602Z,97985.57
2017-09-19T03:11:56.685Z,97979.50
2017-09-19T03:14:25.037Z,97975.34
2017-09-19T03:16:54.283Z,97977.48
2017-09-19T03:19:23.395Z,97978.30
2017-09-19T03:21:51.722Z,97982.33
2017-09-19T03:24:20.047Z,97983.00
2017-09-19T03:26:49.158Z,97979.03
2017-09-19T03:29:17.483Z,97982.87
2017-09-19T03:31:45.835Z,97984.55
2017-09-19T03:34:14.166Z,97989.68
2017-09-19T03:36:42.489Z,97986.31
2017-09-19T03:39:10.838Z,97985.06
2017-09-19T03:41:39.930Z,97985.49
2017-09-19T03:44:09.042Z,97982.09
2017-09-19T03:46:38.131Z,97982.13
2017-09-19T03:49:07.240Z,97983.86
2017-09-19T03:51:36.330Z,97991.56
2017-09-19T03:54:05.443Z,97997.11
2017-09-19T03:56:33.765Z,97992.67
2017-09-19T03:59:02.086Z,97991.95
2017-09-19T04:01:31.203Z,97990.99
2017-09-19T04:03:59.530Z,97990.02
2017-09-19T04:06:27.854Z,97987.06
2017-09-19T04:08:57.446Z,97986.12
2017-09-19T04:11:26.534Z,97977.64
2017-09-19T04:13:54.886Z,97984.09
2017-09-19T04:16:23.989Z,97982.75
2017-09-19T04:18:52.314Z,97990.02
2017-09-19T04:21:21.430Z,97982.23
2017-09-19T04:23:49.788Z,97985.02
2017-09-19T04:26:18.884Z,97984.11
2017-09-19T04:28:47.978Z,97979.92
2017-09-19T04:31:17.094Z,97984.13
2017-09-19T04:33:45.426Z,97985.16
2017-09-19T04:36:13.742Z,97987.13
2017-09-19T04:38:42.862Z,97988.91
2017-09-19T04:41:11.187Z,97990.50
2017-09-19T04:43:39.534Z,97991.18
2017-09-19T04:46:07.858Z,97991.53
2017-09-19T04:48:36.206Z,97999.67
2017-09-19T04:51:04.530Z,97993.72
2017-09-19T04:53:33.623Z,97996.19
2017-09-19T04:56:02.742Z,97997.05
2017-09-19T04:58:31.066Z,98004.64
2017-09-19T05:00:59.418Z,98002.61
2017-09-19T05:03:27.742Z,98010.38
2017-09-19T05:05:56.091Z,98003.17
2017-09-19T05:08:24.425Z,98007.72
2017-09-19T05:10:53.512Z,98011.66
2017-09-19T05:13:21.866Z,98014.39
2017-09-19T05:15:50.190Z,98013.11
2017-09-19T05:18:19.282Z,98014.45
2017-09-19T05:20:48.394Z,98018.66
2017-09-19T05:23:18.546Z,98016.39
2017-09-19T05:25:47.415Z,98020.16
2017-09-19T05:28:15.771Z,98020.42
2017-09-19T05:30:44.863Z,98018.23
2017-09-19T05:33:13.186Z,98021.98
2017-09-19T05:35:41.539Z,98024.14
2017-09-19T05:38:10.634Z,98034.16
2017-09-19T05:40:39.728Z,98029.16
2017-09-19T05:43:08.842Z,98038.83
2017-09-19T05:45:37.167Z,98033.21
2017-09-19T05:48:05.498Z,98033.92
2017-09-19T05:50:34.610Z,98031.67
2017-09-19T05:53:02.934Z,98033.58
2017-09-19T05:55:31.251Z,98035.23
2017-09-19T05:57:59.611Z,98032.99
2017-09-19T06:00:27.937Z,98035.96
2017-09-19T06:02:56.263Z,98037.19
2017-09-19T06:05:26.119Z,98037.47
2017-09-19T06:07:54.445Z,98041.10
2017-09-19T06:10:22.771Z,98045.00
2017-09-19T06:12:51.887Z,98041.38
2017-09-19T06:15:20.208Z,98047.76
2017-09-19T06:17:48.530Z,98045.95
2017-09-19T06:20:16.877Z,98048.40
2017-09-19T06:22:45.210Z,98050.04
2017-09-19T06:25:13.535Z,98051.41
2017-09-19T06:27:41.882Z,98048.83
2017-09-19T06:30:10.199Z,98048.33
2017-09-19T06:32:38.529Z,98052.61
2017-09-19T06:35:06.887Z,98054.34
2017-09-19T06:37:35.215Z,98048.36
2017-09-19T06:40:03.538Z,98052.00
2017-09-19T06:42:32.662Z,98055.78
2017-09-19T06:45:00.987Z,98052.83
2017-09-19T06:47:29.303Z,98051.73
2017-09-19T06:49:57.658Z,98052.56
2017-09-19T06:52:25.983Z,98054.65
2017-09-19T06:54:54.299Z,98056.56
2017-09-19T06:57:22.652Z,98063.63
2017-09-19T06:59:50.978Z,98063.94
2017-09-19T07:02:19.306Z,98062.95
2017-09-19T07:04:47.653Z,98067.89
2017-09-19T07:07:16.749Z,98063.23
2017-09-19T07:09:45.838Z,98064.52
2017-09-19T07:12:14.951Z,98070.80
2017-09-19T07:14:44.032Z,98074.17
2017-09-19T07:17:13.120Z,98073.25
2017-09-19T07:19:41.470Z,98077.70
2017-09-19T07:22:09.786Z,98077.36
2017-09-19T07:24:38.108Z,98083.36
2017-09-19T07:27:06.458Z,98085.48
2017-09-19T07:29:35.546Z,98086.63
2017-09-19T07:32:03.973Z,98084.34
2017-09-19T07:34:32.314Z,98095.22
2017-09-19T07:37:02.426Z,98098.31
2017-09-19T07:39:30.752Z,98100.03
2017-09-19T07:41:59.091Z,98099.63
2017-09-19T07:44:28.178Z,98097.45
2017-09-19T07:46:56.498Z,98098.46
2017-09-19T07:49:24.850Z,98097.55
2017-09-19T07:51:53.938Z,98105.63
2017-09-19T07:54:22.263Z,98104.95
2017-09-19T07:56:50.614Z,98109.14
2017-09-19T07:59:19.701Z,98106.98
2017-09-19T08:01:48.803Z,98109.09
2017-09-19T08:04:17.914Z,98110.82
2017-09-19T08:06:47.002Z,98112.14
2017-09-19T08:09:16.086Z,98107.00
2017-09-19T08:11:44.434Z,98108.05
2017-09-19T08:14:12.755Z,98106.56
2017-09-19T08:16:41.842Z,98105.83
2017-09-19T08:19:10.186Z,98105.74
2017-09-19T08:21:38.507Z,98106.63
2017-09-19T08:24:07.652Z,98097.20
2017-09-19T08:26:35.992Z,98100.05
2017-09-19T08:29:05.082Z,98101.75
2017-09-19T08:31:33.405Z,98102.69
2017-09-19T08:34:01.755Z,98104.48
2017-09-19T08:36:30.835Z,98110.39
2017-09-19T08:38:59.150Z,98112.52
2017-09-19T08:41:27.497Z,98111.00
2017-09-19T08:43:56.623Z,98113.00
2017-09-19T08:46:24.950Z,98106.72
2017-09-19T08:48:53.299Z,98105.99
2017-09-19T08:51:21.624Z,98107.70
2017-09-19T08:53:49.942Z,98109.96
2017-09-19T08:56:18.282Z,98104.33
2017-09-19T08:58:46.610Z,98102.58
2017-09-19T09:01:14.928Z,98101.85
2017-09-19T09:03:43.281Z,98103.75
2017-09-19T09:06:11.598Z,98100.09
2017-09-19T09:08:39.946Z,98102.60
2017-09-19T09:11:08.262Z,98100.59
2017-09-19T09:13:36.579Z,98103.90
2017-09-19T09:16:04.918Z,98108.98
2017-09-19T09:18:33.238Z,98112.34
2017-09-19T09:21:01.560Z,98109.53
2017-09-19T09:23:29.915Z,98108.48
2017-09-19T09:25:58.230Z,98115.93
2017-09-19T09:28:26.554Z,98117.64
2017-09-19T09:30:55.663Z,98114.38
2017-09-19T09:33:23.986Z,98109.64
2017-09-19T09:35:52.303Z,98102.61
2017-09-19T09:38:21.410Z,98110.93
2017-09-19T09:40:50.491Z,98103.19
2017-09-19T09:43:19.605Z,98098.56
2017-09-19T09:45:48.687Z,98100.84
2017-09-19T09:48:17.776Z,98109.56
2017-09-19T09:50:46.123Z,98112.28
2017-09-19T09:53:14.443Z,98113.95
2017-09-19T09:55:43.530Z,98117.39
2017-09-19T10:00:39.502Z,98120.86
2017-09-19T10:03:07.823Z,98115.14
2017-09-19T10:05:36.170Z,98118.75
2017-09-19T10:08:04.488Z,98120.98
2017-09-19T10:10:32.814Z,98118.66
2017-09-19T10:13:01.937Z,98118.97
2017-09-19T10:15:30.263Z,98116.55
2017-09-19T10:17:58.583Z,98116.36
2017-09-19T10:20:26.922Z,98118.98
2017-09-19T10:22:55.261Z,98125.25
2017-09-19T10:25:23.579Z,98123.48
2017-09-19T10:27:51.926Z,98123.84
2017-09-19T10:30:20.242Z,98121.45
2017-09-19T10:32:48.568Z,98116.02
2017-09-19T10:35:16.910Z,98115.97
2017-09-19T10:37:45.231Z,98116.25
2017-09-19T10:40:13.554Z,98119.41
2017-09-19T10:42:41.907Z,98120.33
2017-09-19T10:45:11.465Z,98113.68
2017-09-19T10:47:39.780Z,98116.27
2017-09-19T10:50:08.126Z,98117.83
2017-09-19T10:52:37.212Z,98119.39
2017-09-19T10:55:05.538Z,98118.28
2017-09-19T10:57:33.883Z,98117.98
2017-09-19T11:00:02.970Z,98107.58
2017-09-19T11:02:31.301Z,98117.08
2017-09-19T11:04:59.646Z,98113.70
2017-09-19T11:07:28.734Z,98123.49
2017-09-19T11:09:57.059Z,98117.41
2017-09-19T11:12:25.406Z,98120.86
2017-09-19T11:14:54.499Z,98114.66
2017-09-19T11:17:23.585Z,98115.50
2017-09-19T11:19:51.926Z,98115.39
2017-09-19T11:22:20.243Z,98114.61
2017-09-19T11:24:48.570Z,98115.91
2017-09-19T11:27:16.921Z,98111.39
2017-09-19T11:29:46.002Z,98107.44
2017-09-19T11:32:14.324Z,98104.67
2017-09-19T11:34:42.669Z,98105.16
2017-09-19T11:37:11.760Z,98099.81
2017-09-19T11:39:40.091Z,98096.44
2017-09-19T11:42:08.438Z,98097.27
2017-09-19T11:44:37.525Z,98101.70
2017-09-19T11:47:06.634Z,98109.27
2017-09-19T11:49:35.756Z,98106.77
2017-09-19T11:52:04.078Z,98107.09
2017-09-19T11:54:32.398Z,98110.34
2017-09-19T11:57:00.760Z,98112.20
2017-09-19T11:59:29.850Z,98102.88
2017-09-19T12:01:58.172Z,98108.01
2017-09-19T12:04:26.521Z,98105.62
2017-09-19T12:06:55.602Z,98109.27
2017-09-19T12:09:23.921Z,98108.10
2017-09-19T12:11:52.266Z,98108.11
2017-09-19T12:14:20.600Z,98098.53
2017-09-19T12:16:48.921Z,98103.25
2017-09-19T12:19:18.373Z,98098.23
2017-09-19T12:21:46.691Z,98098.14
2017-09-19T12:24:15.018Z,98099.88
2017-09-19T12:26:43.370Z,98099.75
2017-09-19T12:29:11.698Z,98109.78
2017-09-19T12:31:40.018Z,98113.52
2017-09-19T12:34:08.368Z,98114.61
2017-09-19T12:36:36.682Z,98118.32
2017-09-19T12:39:05.017Z,98117.19
2017-09-19T12:41:33.362Z,98121.89
2017-09-19T12:44:02.466Z,98121.88
2017-09-19T12:46:31.548Z,98123.55
2017-09-19T12:49:00.638Z,98123.28
2017-09-19T12:51:28.987Z,98118.48
2017-09-19T12:53:57.335Z,98125.85
2017-09-19T12:56:25.655Z,98123.42
2017-09-19T12:58:53.971Z,98126.70
2017-09-19T13:01:23.131Z,98123.72
2017-09-19T13:03:51.461Z,98125.20
2017-09-19T13:06:20.547Z,98128.42
2017-09-19T13:08:49.657Z,98129.91
2017-09-19T13:11:19.980Z,98127.71
2017-09-19T13:13:49.098Z,98136.63
2017-09-19T13:16:17.420Z,98143.75
2017-09-19T13:18:45.740Z,98140.09
2017-09-19T13:21:14.858Z,98141.05
2017-09-19T13:23:43.181Z,98134.53
2017-09-19T13:26:11.502Z,98140.45
2017-09-19T13:28:40.622Z,98136.11
2017-09-19T13:31:26.714Z,98137.36
2017-09-19T13:33:55.759Z,98134.83
2017-09-19T13:36:24.084Z,98136.08
2017-09-19T13:38:52.408Z,98140.01
2017-09-19T13:41:20.760Z,98137.86
2017-09-19T13:43:49.080Z,98137.53
2017-09-19T13:46:17.409Z,98144.28
2017-09-19T13:48:45.755Z,98148.46
2017-09-19T13:51:14.842Z,98148.31
2017-09-19T13:53:43.202Z,98144.80
2017-09-19T13:56:11.527Z,98144.45
2017-09-19T13:58:40.609Z,98135.72
2017-09-19T14:01:09.728Z,98138.97
2017-09-19T14:03:38.052Z,98137.84
2017-09-19T14:06:06.374Z,98138.09
2017-09-19T14:08:35.478Z,98131.30
2017-09-19T14:11:04.566Z,98139.70
2017-09-19T14:13:33.645Z,98141.05
2017-09-19T14:16:01.992Z,98139.26
2017-09-19T14:18:30.319Z,98144.53
2017-09-19T14:20:59.512Z,98137.46
2017-09-19T14:23:27.851Z,98141.99
2017-09-19T14:25:56.167Z,98139.95
2017-09-19T14:28:24.596Z,98140.63
2017-09-19T14:30:52.937Z,98146.06
2017-09-19T14:33:22.038Z,98146.12
2017-09-19T14:35:51.146Z,98154.03
2017-09-19T14:38:20.232Z,98150.77
2017-09-19T14:40:49.316Z,98154.64
2017-09-19T14:43:17.667Z,98156.08
2017-09-19T14:45:45.990Z,98156.36
2017-09-19T14:48:15.098Z,98154.88
2017-09-19T14:50:44.217Z,98148.16
2017-09-19T14:53:12.534Z,98141.72
2017-09-19T14:55:40.890Z,98143.21
2017-09-19T14:58:09.216Z,98141.96
2017-09-19T15:00:37.547Z,98145.17
2017-09-19T15:03:05.894Z,98152.16
2017-09-19T15:05:34.978Z,98151.84
2017-09-19T15:08:03.306Z,98150.94
2017-09-19T15:10:31.653Z,98152.44
2017-09-19T15:13:00.742Z,98155.38
2017-09-19T15:15:29.826Z,98153.34
2017-09-19T15:17:58.174Z,98161.12
2017-09-19T15:20:26.498Z,98166.43
2017-09-19T15:22:55.607Z,98168.37
2017-09-19T15:25:24.694Z,98171.14
2017-09-19T15:27:53.787Z,98163.34
2017-09-19T15:30:22.904Z,98172.30
2017-09-19T15:32:51.994Z,98171.81
2017-09-19T15:35:22.352Z,98175.56
2017-09-19T15:37:50.666Z,98174.36
2017-09-19T15:40:18.982Z,98175.77
2017-09-19T15:42:48.087Z,98182.03
2017-09-19T15:45:17.165Z,98181.77
2017-09-19T15:47:45.516Z,98185.48
2017-09-19T15:50:13.931Z,98190.89
2017-09-19T15:52:43.011Z,98194.66
2017-09-19T15:55:11.355Z,98190.91
2017-09-19T15:57:39.678Z,98198.26
2017-09-19T16:00:08.010Z,98195.52
2017-09-19T16:02:36.355Z,98188.41
2017-09-19T16:05:05.449Z,98195.14
2017-09-19T16:07:34.541Z,98192.92
2017-09-19T16:10:03.653Z,98191.31
2017-09-19T16:12:32.751Z,98184.20
2017-09-19T16:15:01.834Z,98187.34
2017-09-19T16:17:30.950Z,98184.88
2017-09-19T16:20:00.042Z,98188.41
2017-09-19T16:22:29.134Z,98194.22
2017-09-19T16:24:58.244Z,98197.05
2017-09-19T16:27:28.242Z,98198.02
2017-09-19T16:29:57.331Z,98207.98
2017-09-19T16:32:25.677Z,98199.83
2017-09-19T16:34:54.012Z,98214.39
2017-09-19T16:37:23.106Z,98209.23
2017-09-19T16:39:52.232Z,98220.24
2017-09-19T16:42:20.550Z,98221.09
2017-09-19T16:44:48.880Z,98222.80
2017-09-19T16:47:17.227Z,98223.13
2017-09-19T16:49:45.555Z,98234.20
2017-09-19T16:52:13.909Z,98226.41
2017-09-19T16:54:43.011Z,98229.36
2017-09-19T16:57:11.343Z,98235.45
2017-09-19T16:59:39.698Z,98237.12
2017-09-19T17:02:08.022Z,98239.67
2017-09-19T17:04:36.370Z,98243.67
2017-09-19T17:07:04.696Z,98243.78
2017-09-19T17:09:33.795Z,98252.23
2017-09-19T17:12:02.915Z,98244.08
2017-09-19T17:14:31.262Z,98250.94
2017-09-19T17:17:01.515Z,98248.20
2017-09-19T17:19:31.703Z,98254.66
2017-09-19T17:22:00.094Z,98254.54
2017-09-19T17:24:28.450Z,98256.31
2017-09-19T17:26:56.779Z,98262.40
2017-09-19T17:29:26.118Z,98265.59
2017-09-19T17:31:56.477Z,98264.80
2017-09-19T17:34:24.865Z,98267.25
2017-09-19T17:36:53.967Z,98269.29
2017-09-19T17:39:24.051Z,98272.23
2017-09-19T17:41:52.440Z,98273.47
2017-09-19T17:44:20.760Z,98285.06
2017-09-19T17:46:49.859Z,98284.81
2017-09-19T17:49:18.978Z,98291.66
2017-09-19T17:51:47.309Z,98296.61
2017-09-19T17:54:15.665Z,98296.50
2017-09-19T17:56:43.988Z,98296.92
2017-09-19T17:59:13.071Z,98299.94
2017-09-19T18:01:41.423Z,98302.52
2017-09-19T18:04:09.755Z,98297.37
2017-09-19T18:06:38.866Z,98307.04
2017-09-19T18:09:07.199Z,98308.92
2017-09-19T18:11:35.550Z,98308.86
2017-09-19T18:14:03.867Z,98311.81
2017-09-19T18:16:32.211Z,98315.30
2017-09-19T18:19:00.530Z,98313.40
2017-09-19T18:21:28.872Z,98320.92
2017-09-19T18:23:57.191Z,98323.87
2017-09-19T18:26:25.511Z,98328.53
2017-09-19T18:28:53.855Z,98332.53
2017-09-19T18:31:22.946Z,98340.73
2017-09-19T18:33:51.291Z,98339.95
2017-09-19T18:36:19.619Z,98338.24
2017-09-19T18:38:48.706Z,98344.73
2017-09-19T18:41:17.060Z,98340.03
2017-09-19T18:43:45.382Z,98345.27
2017-09-19T18:46:14.498Z,98353.91
2017-09-19T18:48:42.823Z,98350.59
2017-09-19T18:51:11.167Z,98352.44
2017-09-19T18:53:39.554Z,98365.88
2017-09-19T18:56:07.903Z,98356.21
2017-09-19T18:58:36.991Z,98354.07
2017-09-19T19:01:06.083Z,98359.64
2017-09-19T19:03:34.427Z,98357.58
2017-09-19T19:06:02.752Z,98361.51
2017-09-19T19:08:31.858Z,98357.74
2017-09-19T19:11:00.951Z,98357.77
2017-09-19T19:13:30.062Z,98356.96
2017-09-19T19:15:58.475Z,98366.20
2017-09-19T19:18:26.790Z,98368.80
2017-09-19T19:20:55.140Z,98370.62
2017-09-19T19:23:24.222Z,98374.95
2017-09-19T19:25:52.599Z,98381.44
2017-09-19T19:28:20.919Z,98384.92
2017-09-19T19:30:49.249Z,98391.77
2017-09-19T19:33:17.643Z,98389.69
2017-09-19T19:35:45.954Z,98389.41
2017-09-19T19:38:14.288Z,98392.39
2017-09-19T19:40:42.630Z,98390.23
2017-09-19T19:43:10.962Z,98396.66
2017-09-19T19:45:39.338Z,98394.94
2017-09-19T19:48:07.678Z,98393.27
2017-09-19T19:50:36.018Z,98399.69
2017-09-19T19:53:04.351Z,98397.12
2017-09-19T19:55:33.462Z,98399.66
2017-09-19T19:58:01.787Z,98397.52
2017-09-19T20:00:30.143Z,98397.12
2017-09-19T20:02:58.467Z,98403.13
2017-09-19T20:05:27.566Z,98403.11
2017-09-19T20:07:55.918Z,98399.69
2017-09-19T20:10:24.243Z,98404.84
2017-09-19T20:12:53.360Z,98403.64
2017-09-19T20:15:21.681Z,98410.02
2017-09-19T20:17:50.006Z,98407.03
2017-09-19T20:20:19.126Z,98409.62
2017-09-19T20:22:47.449Z,98406.64
2017-09-19T20:25:15.798Z,98409.23
2017-09-19T20:27:44.126Z,98408.41
2017-09-19T20:30:13.222Z,98408.85
2017-09-19T20:32:41.577Z,98411.01
2017-09-19T20:35:10.882Z,98412.75
2017-09-19T20:37:39.248Z,98412.34
2017-09-19T20:40:07.575Z,98412.77
2017-09-19T20:42:36.662Z,98414.91
2017-09-19T20:45:05.778Z,98417.90
2017-09-19T20:47:34.875Z,98423.46
2017-09-19T20:50:04.009Z,98419.62
2017-09-19T20:52:32.330Z,98424.73
2017-09-19T20:55:01.430Z,98428.59
2017-09-19T20:57:29.775Z,98430.70
2017-09-19T20:59:58.094Z,98431.15
2017-09-19T21:02:26.524Z,98428.16
2017-09-19T21:05:00.318Z,98437.55
2017-09-19T21:07:34.146Z,98435.88
2017-09-19T21:10:08.483Z,98433.70
2017-09-19T21:12:42.306Z,98430.73
2017-09-19T21:15:16.186Z,98438.42
2017-09-19T21:17:49.962Z,98437.56
2017-09-19T21:20:18.234Z,98436.30
2017-09-19T21:22:47.322Z,98436.26
2017-09-19T21:25:16.437Z,98441.37
2017-09-19T21:27:45.698Z,98440.95
2017-09-19T21:30:14.083Z,98438.37
2017-09-19T21:32:42.410Z,98438.40
2017-09-19T21:35:10.740Z,98440.97
2017-09-19T21:37:39.090Z,98436.27
2017-09-19T21:40:07.424Z,98438.84
2017-09-19T21:42:36.542Z,98438.86
2017-09-19T21:45:04.884Z,98435.45
2017-09-19T21:47:33.212Z,98439.70
2017-09-19T21:50:01.558Z,98446.54
2017-09-19T21:52:31.417Z,98443.12
2017-09-19T21:54:59.841Z,98446.11
2017-09-19T21:57:28.258Z,98443.95
2017-09-19T21:59:57.078Z,98446.95
2017-09-19T22:02:26.244Z,98446.55
2017-09-19T22:04:54.623Z,98439.69
2017-09-19T22:07:23.858Z,98445.22
2017-09-19T22:09:52.187Z,98444.70
2017-09-19T22:12:21.302Z,98445.41
2017-09-19T22:14:50.394Z,98452.80
2017-09-19T22:17:19.522Z,98457.53
2017-09-19T22:19:48.635Z,98450.76
2017-09-19T22:22:17.183Z,98450.77
2017-09-19T22:24:45.513Z,98451.20
2017-09-19T22:27:13.850Z,98444.80
2017-09-19T22:29:42.201Z,98446.91
2017-09-19T22:32:10.534Z,98443.95
2017-09-19T22:34:38.864Z,98449.05
2017-09-19T22:37:07.986Z,98448.66
2017-09-19T22:39:36.310Z,98453.34
2017-09-19T22:42:04.639Z,98452.47
2017-09-19T22:44:32.989Z,98453.70
2017-09-19T22:47:01.307Z,98452.86
2017-09-19T22:49:29.627Z,98449.91
2017-09-19T22:51:57.979Z,98452.80
2017-09-19T22:54:26.313Z,98452.80
2017-09-19T22:56:54.674Z,98450.67
2017-09-19T22:59:22.995Z,98449.83
2017-09-19T23:01:52.090Z,98439.55
2017-09-19T23:04:21.196Z,98448.89
2017-09-19T23:06:49.519Z,98447.25
2017-09-19T23:09:18.603Z,98451.10
2017-09-19T23:11:46.942Z,98444.73
2017-09-19T23:14:16.023Z,98446.83
2017-09-19T23:16:44.344Z,98445.13
2017-09-19T23:19:12.690Z,98449.39
2017-09-19T23:21:41.779Z,98445.45
2017-09-19T23:24:10.103Z,98440.09
2017-09-19T23:26:38.442Z,98441.33
2017-09-19T23:29:07.532Z,98448.23
2017-09-19T23:31:35.877Z,98448.27
2017-09-19T23:34:04.196Z,98444.04
2017-09-19T23:36:32.527Z,98442.78
2017-09-19T23:39:00.867Z,98444.92
2017-09-19T23:41:29.946Z,98443.69
2017-09-19T23:43:58.281Z,98448.38
2017-09-19T23:46:26.600Z,98447.90
2017-09-19T23:48:54.943Z,98445.81
2017-09-19T23:51:23.258Z,98446.19
2017-09-19T23:53:51.604Z,98447.25
2017-09-19T23:56:19.914Z,98445.20
2017-09-19T23:58:48.230Z,98445.22
